sensor_id;sensor_type;location;lat;lon;timestamp;temperature;humidity
56729;DHT22;42612;52.232;7.560;2022-08-07T00:00:19;19.70;46.00
56729;DHT22;42612;52.232;7.560;2022-08-07T00:03:06;19.60;45.60
56729;DHT22;42612;52.232;7.560;2022-08-07T00:05:53;19.60;45.60
56729;DHT22;42612;52.232;7.560;2022-08-07T00:08:39;19.60;45.60
56729;DHT22;42612;52.232;7.560;2022-08-07T00:11:25;19.60;45.60
56729;DHT22;42612;52.232;7.560;2022-08-07T00:14:11;19.50;45.60
56729;DHT22;42612;52.232;7.560;2022-08-07T00:16:58;19.50;45.60
56729;DHT22;42612;52.232;7.560;2022-08-07T00:19:45;19.50;45.50
56729;DHT22;42612;52.232;7.560;2022-08-07T00:22:32;19.50;45.60
56729;DHT22;42612;52.232;7.560;2022-08-07T00:25:18;19.40;46.10
56729;DHT22;42612;52.232;7.560;2022-08-07T00:28:03;19.40;46.30
56729;DHT22;42612;52.232;7.560;2022-08-07T00:30:49;19.40;46.40
56729;DHT22;42612;52.232;7.560;2022-08-07T00:33:36;19.40;46.50
56729;DHT22;42612;52.232;7.560;2022-08-07T00:36:22;19.40;46.30
56729;DHT22;42612;52.232;7.560;2022-08-07T00:39:09;19.30;46.40
56729;DHT22;42612;52.232;7.560;2022-08-07T00:41:56;19.30;46.50
56729;DHT22;42612;52.232;7.560;2022-08-07T00:44:43;19.30;46.20
56729;DHT22;42612;52.232;7.560;2022-08-07T00:47:29;19.30;45.90
56729;DHT22;42612;52.232;7.560;2022-08-07T00:50:15;19.20;46.10
56729;DHT22;42612;52.232;7.560;2022-08-07T00:53:01;19.20;46.30
56729;DHT22;42612;52.232;7.560;2022-08-07T00:55:47;19.20;46.30
56729;DHT22;42612;52.232;7.560;2022-08-07T00:58:33;19.10;46.10
56729;DHT22;42612;52.232;7.560;2022-08-07T01:01:19;19.10;46.10
56729;DHT22;42612;52.232;7.560;2022-08-07T01:04:06;19.10;45.90
56729;DHT22;42612;52.232;7.560;2022-08-07T01:06:52;19.00;46.10
56729;DHT22;42612;52.232;7.560;2022-08-07T01:09:40;19.00;46.40
56729;DHT22;42612;52.232;7.560;2022-08-07T01:12:27;18.90;46.30
56729;DHT22;42612;52.232;7.560;2022-08-07T01:15:13;18.90;46.10
56729;DHT22;42612;52.232;7.560;2022-08-07T01:17:59;18.90;46.40
56729;DHT22;42612;52.232;7.560;2022-08-07T01:20:47;18.80;46.10
56729;DHT22;42612;52.232;7.560;2022-08-07T01:23:38;18.80;46.10
56729;DHT22;42612;52.232;7.560;2022-08-07T01:26:25;18.80;45.90
56729;DHT22;42612;52.232;7.560;2022-08-07T01:29:11;18.70;45.80
56729;DHT22;42612;52.232;7.560;2022-08-07T01:31:57;18.70;46.30
56729;DHT22;42612;52.232;7.560;2022-08-07T01:34:44;18.70;46.30
56729;DHT22;42612;52.232;7.560;2022-08-07T01:37:30;18.70;46.40
56729;DHT22;42612;52.232;7.560;2022-08-07T01:40:18;18.70;46.60
56729;DHT22;42612;52.232;7.560;2022-08-07T01:43:05;18.60;46.80
56729;DHT22;42612;52.232;7.560;2022-08-07T01:45:51;18.60;46.70
56729;DHT22;42612;52.232;7.560;2022-08-07T01:48:39;18.60;46.30
56729;DHT22;42612;52.232;7.560;2022-08-07T01:51:26;18.50;46.60
56729;DHT22;42612;52.232;7.560;2022-08-07T01:54:13;18.50;46.60
56729;DHT22;42612;52.232;7.560;2022-08-07T01:57:20;18.50;46.60
56729;DHT22;42612;52.232;7.560;2022-08-07T02:00:10;18.40;46.50
56729;DHT22;42612;52.232;7.560;2022-08-07T02:02:58;18.40;46.30
56729;DHT22;42612;52.232;7.560;2022-08-07T02:05:49;18.40;46.30
56729;DHT22;42612;52.232;7.560;2022-08-07T02:08:37;18.30;46.40
56729;DHT22;42612;52.232;7.560;2022-08-07T02:11:25;18.40;46.80
56729;DHT22;42612;52.232;7.560;2022-08-07T02:14:11;18.30;46.60
56729;DHT22;42612;52.232;7.560;2022-08-07T02:16:59;18.30;46.40
56729;DHT22;42612;52.232;7.560;2022-08-07T02:19:45;18.30;46.60
56729;DHT22;42612;52.232;7.560;2022-08-07T02:22:35;18.20;46.60
56729;DHT22;42612;52.232;7.560;2022-08-07T02:25:22;18.20;46.80
56729;DHT22;42612;52.232;7.560;2022-08-07T02:28:09;18.20;46.70
56729;DHT22;42612;52.232;7.560;2022-08-07T02:30:56;18.20;47.30
56729;DHT22;42612;52.232;7.560;2022-08-07T02:33:42;18.10;46.70
56729;DHT22;42612;52.232;7.560;2022-08-07T02:36:28;18.10;46.90
56729;DHT22;42612;52.232;7.560;2022-08-07T02:39:14;18.10;47.00
56729;DHT22;42612;52.232;7.560;2022-08-07T02:42:02;18.10;46.90
56729;DHT22;42612;52.232;7.560;2022-08-07T02:44:48;18.10;47.10
56729;DHT22;42612;52.232;7.560;2022-08-07T02:47:34;18.10;47.20
56729;DHT22;42612;52.232;7.560;2022-08-07T02:50:21;18.00;47.20
56729;DHT22;42612;52.232;7.560;2022-08-07T02:53:08;18.00;47.20
56729;DHT22;42612;52.232;7.560;2022-08-07T02:55:58;17.90;47.30
56729;DHT22;42612;52.232;7.560;2022-08-07T02:58:44;17.90;48.10
56729;DHT22;42612;52.232;7.560;2022-08-07T03:01:31;17.90;47.50
56729;DHT22;42612;52.232;7.560;2022-08-07T03:04:17;17.90;47.50
56729;DHT22;42612;52.232;7.560;2022-08-07T03:07:03;17.90;47.50
56729;DHT22;42612;52.232;7.560;2022-08-07T03:09:49;17.80;47.60
56729;DHT22;42612;52.232;7.560;2022-08-07T03:12:35;17.80;47.50
56729;DHT22;42612;52.232;7.560;2022-08-07T03:15:22;17.80;47.40
56729;DHT22;42612;52.232;7.560;2022-08-07T03:18:08;17.80;47.60
56729;DHT22;42612;52.232;7.560;2022-08-07T03:20:54;17.80;47.70
56729;DHT22;42612;52.232;7.560;2022-08-07T03:23:40;17.70;47.80
56729;DHT22;42612;52.232;7.560;2022-08-07T03:26:27;17.70;47.30
56729;DHT22;42612;52.232;7.560;2022-08-07T03:29:16;17.70;47.60
56729;DHT22;42612;52.232;7.560;2022-08-07T03:32:03;17.70;47.80
56729;DHT22;42612;52.232;7.560;2022-08-07T03:34:52;17.70;48.00
56729;DHT22;42612;52.232;7.560;2022-08-07T03:37:39;17.70;47.90
56729;DHT22;42612;52.232;7.560;2022-08-07T03:40:25;17.70;47.70
56729;DHT22;42612;52.232;7.560;2022-08-07T03:43:12;17.60;47.80
56729;DHT22;42612;52.232;7.560;2022-08-07T03:45:59;17.60;47.60
56729;DHT22;42612;52.232;7.560;2022-08-07T03:48:47;17.60;47.30
56729;DHT22;42612;52.232;7.560;2022-08-07T03:51:34;17.60;47.60
56729;DHT22;42612;52.232;7.560;2022-08-07T03:54:20;17.50;47.20
56729;DHT22;42612;52.232;7.560;2022-08-07T03:57:06;17.50;47.00
56729;DHT22;42612;52.232;7.560;2022-08-07T03:59:53;17.50;46.80
56729;DHT22;42612;52.232;7.560;2022-08-07T04:02:39;17.50;46.90
56729;DHT22;42612;52.232;7.560;2022-08-07T04:05:27;17.40;47.00
56729;DHT22;42612;52.232;7.560;2022-08-07T04:08:14;17.40;46.90
56729;DHT22;42612;52.232;7.560;2022-08-07T04:11:00;17.40;47.50
56729;DHT22;42612;52.232;7.560;2022-08-07T04:13:46;17.40;47.50
56729;DHT22;42612;52.232;7.560;2022-08-07T04:16:34;17.30;47.20
56729;DHT22;42612;52.232;7.560;2022-08-07T04:19:20;17.30;47.30
56729;DHT22;42612;52.232;7.560;2022-08-07T04:22:06;17.30;47.30
56729;DHT22;42612;52.232;7.560;2022-08-07T04:24:52;17.30;47.50
56729;DHT22;42612;52.232;7.560;2022-08-07T04:27:39;17.30;47.60
56729;DHT22;42612;52.232;7.560;2022-08-07T04:30:25;17.30;47.60
56729;DHT22;42612;52.232;7.560;2022-08-07T04:33:12;17.20;47.50
56729;DHT22;42612;52.232;7.560;2022-08-07T04:35:58;17.20;47.50
56729;DHT22;42612;52.232;7.560;2022-08-07T04:38:44;17.20;47.80
56729;DHT22;42612;52.232;7.560;2022-08-07T04:41:30;17.20;48.00
56729;DHT22;42612;52.232;7.560;2022-08-07T04:44:16;17.20;48.00
56729;DHT22;42612;52.232;7.560;2022-08-07T04:47:05;17.10;48.00
56729;DHT22;42612;52.232;7.560;2022-08-07T04:50:07;17.20;48.10
56729;DHT22;42612;52.232;7.560;2022-08-07T04:53:11;17.20;47.80
56729;DHT22;42612;52.232;7.560;2022-08-07T04:56:35;17.20;47.70
56729;DHT22;42612;52.232;7.560;2022-08-07T04:59:24;17.20;48.20
56729;DHT22;42612;52.232;7.560;2022-08-07T05:05:34;17.20;48.50
56729;DHT22;42612;52.232;7.560;2022-08-07T05:11:37;17.20;48.40
56729;DHT22;42612;52.232;7.560;2022-08-07T05:14:37;17.20;48.50
56729;DHT22;42612;52.232;7.560;2022-08-07T05:17:26;17.20;48.60
56729;DHT22;42612;52.232;7.560;2022-08-07T05:20:14;17.20;48.90
56729;DHT22;42612;52.232;7.560;2022-08-07T05:23:04;17.30;49.10
56729;DHT22;42612;52.232;7.560;2022-08-07T05:25:53;17.30;49.20
56729;DHT22;42612;52.232;7.560;2022-08-07T05:28:39;17.30;49.20
56729;DHT22;42612;52.232;7.560;2022-08-07T05:31:27;17.30;49.50
56729;DHT22;42612;52.232;7.560;2022-08-07T05:34:18;17.40;49.60
56729;DHT22;42612;52.232;7.560;2022-08-07T05:37:04;17.40;49.40
56729;DHT22;42612;52.232;7.560;2022-08-07T05:39:51;17.50;49.60
56729;DHT22;42612;52.232;7.560;2022-08-07T05:42:37;17.50;49.80
56729;DHT22;42612;52.232;7.560;2022-08-07T05:45:23;17.60;49.50
56729;DHT22;42612;52.232;7.560;2022-08-07T05:48:09;17.60;49.80
56729;DHT22;42612;52.232;7.560;2022-08-07T05:50:56;17.70;50.00
56729;DHT22;42612;52.232;7.560;2022-08-07T05:53:43;17.80;50.10
56729;DHT22;42612;52.232;7.560;2022-08-07T05:56:30;17.80;50.00
56729;DHT22;42612;52.232;7.560;2022-08-07T05:59:17;17.90;50.10
56729;DHT22;42612;52.232;7.560;2022-08-07T06:02:04;18.00;50.10
56729;DHT22;42612;52.232;7.560;2022-08-07T06:04:52;18.00;50.30
56729;DHT22;42612;52.232;7.560;2022-08-07T06:07:40;18.10;50.40
56729;DHT22;42612;52.232;7.560;2022-08-07T06:10:26;18.20;50.30
56729;DHT22;42612;52.232;7.560;2022-08-07T06:13:13;18.30;50.30
56729;DHT22;42612;52.232;7.560;2022-08-07T06:15:59;18.30;50.40
56729;DHT22;42612;52.232;7.560;2022-08-07T06:18:45;18.40;50.60
56729;DHT22;42612;52.232;7.560;2022-08-07T06:21:32;18.50;50.50
56729;DHT22;42612;52.232;7.560;2022-08-07T06:24:18;18.60;50.50
56729;DHT22;42612;52.232;7.560;2022-08-07T06:27:04;18.70;50.40
56729;DHT22;42612;52.232;7.560;2022-08-07T06:29:50;18.70;50.50
56729;DHT22;42612;52.232;7.560;2022-08-07T06:32:36;18.80;50.30
56729;DHT22;42612;52.232;7.560;2022-08-07T06:35:22;18.90;50.30
56729;DHT22;42612;52.232;7.560;2022-08-07T06:38:08;19.00;50.20
56729;DHT22;42612;52.232;7.560;2022-08-07T06:40:54;19.10;50.10
56729;DHT22;42612;52.232;7.560;2022-08-07T06:43:40;19.20;50.10
56729;DHT22;42612;52.232;7.560;2022-08-07T06:46:28;19.30;50.00
56729;DHT22;42612;52.232;7.560;2022-08-07T06:49:14;19.40;49.80
56729;DHT22;42612;52.232;7.560;2022-08-07T06:52:00;19.40;49.70
56729;DHT22;42612;52.232;7.560;2022-08-07T06:54:48;19.50;49.70
56729;DHT22;42612;52.232;7.560;2022-08-07T06:57:34;19.60;49.60
56729;DHT22;42612;52.232;7.560;2022-08-07T07:00:21;19.70;49.60
56729;DHT22;42612;52.232;7.560;2022-08-07T07:03:08;19.80;50.30
56729;DHT22;42612;52.232;7.560;2022-08-07T07:05:54;19.90;49.50
56729;DHT22;42612;52.232;7.560;2022-08-07T07:08:40;20.00;49.50
56729;DHT22;42612;52.232;7.560;2022-08-07T07:11:26;20.10;49.40
56729;DHT22;42612;52.232;7.560;2022-08-07T07:14:13;20.20;49.40
56729;DHT22;42612;52.232;7.560;2022-08-07T07:17:02;20.20;49.20
56729;DHT22;42612;52.232;7.560;2022-08-07T07:19:52;20.30;49.30
56729;DHT22;42612;52.232;7.560;2022-08-07T07:22:39;20.40;49.20
56729;DHT22;42612;52.232;7.560;2022-08-07T07:25:26;20.50;49.20
56729;DHT22;42612;52.232;7.560;2022-08-07T07:31:27;20.70;49.00
56729;DHT22;42612;52.232;7.560;2022-08-07T07:34:19;20.80;48.90
56729;DHT22;42612;52.232;7.560;2022-08-07T07:37:08;20.80;48.80
56729;DHT22;42612;52.232;7.560;2022-08-07T07:39:56;20.90;48.80
56729;DHT22;42612;52.232;7.560;2022-08-07T07:42:44;21.00;48.70
56729;DHT22;42612;52.232;7.560;2022-08-07T07:45:31;21.10;48.60
56729;DHT22;42612;52.232;7.560;2022-08-07T07:48:18;21.20;48.60
56729;DHT22;42612;52.232;7.560;2022-08-07T07:51:05;21.30;48.50
56729;DHT22;42612;52.232;7.560;2022-08-07T07:53:51;21.30;48.50
56729;DHT22;42612;52.232;7.560;2022-08-07T07:56:38;21.30;48.40
56729;DHT22;42612;52.232;7.560;2022-08-07T07:59:25;21.40;48.30
56729;DHT22;42612;52.232;7.560;2022-08-07T08:02:12;21.50;48.40
56729;DHT22;42612;52.232;7.560;2022-08-07T08:04:59;21.60;48.20
56729;DHT22;42612;52.232;7.560;2022-08-07T08:07:48;21.60;48.30
56729;DHT22;42612;52.232;7.560;2022-08-07T08:10:34;21.70;48.20
56729;DHT22;42612;52.232;7.560;2022-08-07T08:13:20;21.70;48.00
56729;DHT22;42612;52.232;7.560;2022-08-07T08:16:08;21.80;48.00
56729;DHT22;42612;52.232;7.560;2022-08-07T08:18:58;21.80;47.90
56729;DHT22;42612;52.232;7.560;2022-08-07T08:21:46;21.90;47.70
56729;DHT22;42612;52.232;7.560;2022-08-07T08:24:51;22.00;47.70
56729;DHT22;42612;52.232;7.560;2022-08-07T08:27:57;22.10;47.50
56729;DHT22;42612;52.232;7.560;2022-08-07T08:30:45;22.10;47.30
56729;DHT22;42612;52.232;7.560;2022-08-07T08:33:33;22.20;47.10
56729;DHT22;42612;52.232;7.560;2022-08-07T08:36:19;22.30;47.00
56729;DHT22;42612;52.232;7.560;2022-08-07T08:39:07;22.40;46.80
56729;DHT22;42612;52.232;7.560;2022-08-07T08:42:04;22.40;46.80
56729;DHT22;42612;52.232;7.560;2022-08-07T08:50:57;22.70;46.20
56729;DHT22;42612;52.232;7.560;2022-08-07T08:54:01;22.80;46.00
56729;DHT22;42612;52.232;7.560;2022-08-07T08:56:52;22.90;46.00
56729;DHT22;42612;52.232;7.560;2022-08-07T08:59:42;23.00;46.00
56729;DHT22;42612;52.232;7.560;2022-08-07T09:05:42;23.10;45.70
56729;DHT22;42612;52.232;7.560;2022-08-07T09:12:09;23.30;45.50
56729;DHT22;42612;52.232;7.560;2022-08-07T09:18:15;23.40;45.20
56729;DHT22;42612;52.232;7.560;2022-08-07T09:36:47;23.80;44.60
56729;DHT22;42612;52.232;7.560;2022-08-07T09:52:24;24.20;43.70
56729;DHT22;42612;52.232;7.560;2022-08-07T10:01:31;24.50;43.00
56729;DHT22;42612;52.232;7.560;2022-08-07T10:07:35;24.60;43.10
56729;DHT22;42612;52.232;7.560;2022-08-07T10:10:32;24.70;43.20
56729;DHT22;42612;52.232;7.560;2022-08-07T10:13:41;24.80;43.10
56729;DHT22;42612;52.232;7.560;2022-08-07T10:22:43;25.10;42.90
56729;DHT22;42612;52.232;7.560;2022-08-07T10:28:36;25.30;43.20
56729;DHT22;42612;52.232;7.560;2022-08-07T10:34:53;25.50;43.20
56729;DHT22;42612;52.232;7.560;2022-08-07T10:41:11;25.80;43.10
56729;DHT22;42612;52.232;7.560;2022-08-07T10:47:32;26.00;42.80
56729;DHT22;42612;52.232;7.560;2022-08-07T10:50:31;26.10;42.60
56729;DHT22;42612;52.232;7.560;2022-08-07T10:53:38;26.20;42.70
56729;DHT22;42612;52.232;7.560;2022-08-07T10:59:46;26.40;42.40
56729;DHT22;42612;52.232;7.560;2022-08-07T11:02:52;26.50;42.20
56729;DHT22;42612;52.232;7.560;2022-08-07T11:06:07;26.60;41.70
56729;DHT22;42612;52.232;7.560;2022-08-07T11:09:02;26.70;41.70
56729;DHT22;42612;52.232;7.560;2022-08-07T11:12:00;26.80;41.40
56729;DHT22;42612;52.232;7.560;2022-08-07T11:14:53;26.90;41.70
56729;DHT22;42612;52.232;7.560;2022-08-07T11:18:02;27.00;42.00
56729;DHT22;42612;52.232;7.560;2022-08-07T11:20:54;27.10;42.00
56729;DHT22;42612;52.232;7.560;2022-08-07T11:26:46;27.30;41.90
56729;DHT22;42612;52.232;7.560;2022-08-07T11:29:51;27.40;41.80
56729;DHT22;42612;52.232;7.560;2022-08-07T11:42:29;27.70;41.40
56729;DHT22;42612;52.232;7.560;2022-08-07T11:51:58;27.70;40.80
56729;DHT22;42612;52.232;7.560;2022-08-07T11:57:54;27.60;40.90
56729;DHT22;42612;52.232;7.560;2022-08-07T12:07:08;27.60;41.10
56729;DHT22;42612;52.232;7.560;2022-08-07T12:10:03;27.70;41.00
56729;DHT22;42612;52.232;7.560;2022-08-07T12:12:59;27.70;41.00
56729;DHT22;42612;52.232;7.560;2022-08-07T12:15:53;27.80;41.10
56729;DHT22;42612;52.232;7.560;2022-08-07T12:22:07;28.10;41.20
56729;DHT22;42612;52.232;7.560;2022-08-07T12:25:16;28.20;40.90
56729;DHT22;42612;52.232;7.560;2022-08-07T12:28:33;28.30;40.40
56729;DHT22;42612;52.232;7.560;2022-08-07T12:31:38;28.30;40.10
56729;DHT22;42612;52.232;7.560;2022-08-07T12:34:29;28.30;39.70
56729;DHT22;42612;52.232;7.560;2022-08-07T12:37:17;28.30;39.60
56729;DHT22;42612;52.232;7.560;2022-08-07T12:40:05;28.30;39.90
56729;DHT22;42612;52.232;7.560;2022-08-07T12:42:53;28.30;39.80
56729;DHT22;42612;52.232;7.560;2022-08-07T12:45:44;28.30;40.00
56729;DHT22;42612;52.232;7.560;2022-08-07T12:51:48;28.40;40.20
56729;DHT22;42612;52.232;7.560;2022-08-07T12:54:56;28.50;40.70
56729;DHT22;42612;52.232;7.560;2022-08-07T12:57:44;28.60;39.80
56729;DHT22;42612;52.232;7.560;2022-08-07T13:00:39;28.60;39.80
56729;DHT22;42612;52.232;7.560;2022-08-07T13:04:08;28.70;40.10
56729;DHT22;42612;52.232;7.560;2022-08-07T13:16:03;29.20;39.80
56729;DHT22;42612;52.232;7.560;2022-08-07T13:19:05;29.30;39.40
56729;DHT22;42612;52.232;7.560;2022-08-07T13:22:09;29.50;38.90
56729;DHT22;42612;52.232;7.560;2022-08-07T13:25:00;29.50;39.20
56729;DHT22;42612;52.232;7.560;2022-08-07T13:27:49;29.60;39.40
56729;DHT22;42612;52.232;7.560;2022-08-07T13:30:38;29.70;39.60
56729;DHT22;42612;52.232;7.560;2022-08-07T13:33:38;29.80;39.30
56729;DHT22;42612;52.232;7.560;2022-08-07T13:36:53;30.00;39.10
56729;DHT22;42612;52.232;7.560;2022-08-07T13:42:48;30.20;38.50
56729;DHT22;42612;52.232;7.560;2022-08-07T13:45:35;30.30;38.70
56729;DHT22;42612;52.232;7.560;2022-08-07T13:48:25;30.30;38.80
56729;DHT22;42612;52.232;7.560;2022-08-07T13:51:14;30.30;38.60
56729;DHT22;42612;52.232;7.560;2022-08-07T13:54:02;30.40;38.80
56729;DHT22;42612;52.232;7.560;2022-08-07T13:56:52;30.50;38.80
56729;DHT22;42612;52.232;7.560;2022-08-07T13:59:41;30.60;38.70
56729;DHT22;42612;52.232;7.560;2022-08-07T14:02:29;30.60;38.40
56729;DHT22;42612;52.232;7.560;2022-08-07T14:05:19;30.70;38.40
56729;DHT22;42612;52.232;7.560;2022-08-07T14:08:07;30.80;38.30
56729;DHT22;42612;52.232;7.560;2022-08-07T14:10:53;30.90;38.60
56729;DHT22;42612;52.232;7.560;2022-08-07T14:13:41;31.00;38.10
56729;DHT22;42612;52.232;7.560;2022-08-07T14:16:32;31.00;37.80
56729;DHT22;42612;52.232;7.560;2022-08-07T14:19:43;30.90;37.70
56729;DHT22;42612;52.232;7.560;2022-08-07T14:22:51;30.90;36.90
56729;DHT22;42612;52.232;7.560;2022-08-07T14:25:45;30.70;36.80
56729;DHT22;42612;52.232;7.560;2022-08-07T14:28:32;30.60;36.90
56729;DHT22;42612;52.232;7.560;2022-08-07T14:31:22;30.40;36.90
56729;DHT22;42612;52.232;7.560;2022-08-07T14:34:10;30.30;37.00
56729;DHT22;42612;52.232;7.560;2022-08-07T14:36:59;30.20;36.50
56729;DHT22;42612;52.232;7.560;2022-08-07T14:39:47;30.10;36.90
56729;DHT22;42612;52.232;7.560;2022-08-07T14:42:33;30.00;37.20
56729;DHT22;42612;52.232;7.560;2022-08-07T14:45:22;30.00;37.40
56729;DHT22;42612;52.232;7.560;2022-08-07T14:48:10;30.00;37.60
56729;DHT22;42612;52.232;7.560;2022-08-07T14:50:59;30.10;37.50
56729;DHT22;42612;52.232;7.560;2022-08-07T14:53:45;30.10;37.50
56729;DHT22;42612;52.232;7.560;2022-08-07T14:56:32;30.20;37.20
56729;DHT22;42612;52.232;7.560;2022-08-07T14:59:19;30.20;36.90
56729;DHT22;42612;52.232;7.560;2022-08-07T15:02:08;30.20;36.50
56729;DHT22;42612;52.232;7.560;2022-08-07T15:04:55;30.20;37.10
56729;DHT22;42612;52.232;7.560;2022-08-07T15:07:42;30.20;37.10
56729;DHT22;42612;52.232;7.560;2022-08-07T15:10:29;30.20;36.50
56729;DHT22;42612;52.232;7.560;2022-08-07T15:13:16;30.20;36.80
56729;DHT22;42612;52.232;7.560;2022-08-07T15:16:06;30.30;36.80
56729;DHT22;42612;52.232;7.560;2022-08-07T15:18:54;30.30;37.30
56729;DHT22;42612;52.232;7.560;2022-08-07T15:21:43;30.30;37.40
56729;DHT22;42612;52.232;7.560;2022-08-07T15:24:35;30.30;37.00
56729;DHT22;42612;52.232;7.560;2022-08-07T15:27:24;30.40;36.60
56729;DHT22;42612;52.232;7.560;2022-08-07T15:30:11;30.40;36.80
56729;DHT22;42612;52.232;7.560;2022-08-07T15:32:57;30.40;36.60
56729;DHT22;42612;52.232;7.560;2022-08-07T15:35:51;30.40;36.60
56729;DHT22;42612;52.232;7.560;2022-08-07T15:38:38;30.40;36.80
56729;DHT22;42612;52.232;7.560;2022-08-07T15:41:25;30.50;36.70
56729;DHT22;42612;52.232;7.560;2022-08-07T15:44:16;30.60;37.50
56729;DHT22;42612;52.232;7.560;2022-08-07T15:47:04;30.60;36.50
56729;DHT22;42612;52.232;7.560;2022-08-07T15:49:51;30.50;36.50
56729;DHT22;42612;52.232;7.560;2022-08-07T15:52:38;30.60;36.70
56729;DHT22;42612;52.232;7.560;2022-08-07T15:55:24;30.50;36.80
56729;DHT22;42612;52.232;7.560;2022-08-07T15:58:12;30.50;36.60
56729;DHT22;42612;52.232;7.560;2022-08-07T16:01:01;30.50;36.50
56729;DHT22;42612;52.232;7.560;2022-08-07T16:03:51;30.50;36.60
56729;DHT22;42612;52.232;7.560;2022-08-07T16:06:49;30.50;36.50
56729;DHT22;42612;52.232;7.560;2022-08-07T16:09:46;30.50;36.50
56729;DHT22;42612;52.232;7.560;2022-08-07T16:15:57;30.50;36.90
56729;DHT22;42612;52.232;7.560;2022-08-07T16:24:51;30.30;36.20
56729;DHT22;42612;52.232;7.560;2022-08-07T16:27:45;30.30;36.00
56729;DHT22;42612;52.232;7.560;2022-08-07T16:30:40;30.10;35.80
56729;DHT22;42612;52.232;7.560;2022-08-07T16:33:33;30.10;36.00
56729;DHT22;42612;52.232;7.560;2022-08-07T16:36:25;30.00;36.20
56729;DHT22;42612;52.232;7.560;2022-08-07T16:51:49;29.90;36.20
56729;DHT22;42612;52.232;7.560;2022-08-07T16:54:59;29.90;36.00
56729;DHT22;42612;52.232;7.560;2022-08-07T16:57:59;29.80;36.20
56729;DHT22;42612;52.232;7.560;2022-08-07T17:04:05;29.80;36.40
56729;DHT22;42612;52.232;7.560;2022-08-07T17:07:01;29.80;36.30
56729;DHT22;42612;52.232;7.560;2022-08-07T17:10:06;29.80;36.20
56729;DHT22;42612;52.232;7.560;2022-08-07T17:16:07;29.80;36.20
56729;DHT22;42612;52.232;7.560;2022-08-07T17:21:49;29.80;36.10
56729;DHT22;42612;52.232;7.560;2022-08-07T17:24:54;29.70;36.20
56729;DHT22;42612;52.232;7.560;2022-08-07T17:28:04;29.70;36.10
56729;DHT22;42612;52.232;7.560;2022-08-07T17:31:03;29.70;36.10
56729;DHT22;42612;52.232;7.560;2022-08-07T17:33:58;29.70;36.20
56729;DHT22;42612;52.232;7.560;2022-08-07T17:37:03;29.70;36.10
56729;DHT22;42612;52.232;7.560;2022-08-07T17:42:50;29.60;35.90
56729;DHT22;42612;52.232;7.560;2022-08-07T17:48:47;29.50;35.80
56729;DHT22;42612;52.232;7.560;2022-08-07T17:51:54;29.50;35.90
56729;DHT22;42612;52.232;7.560;2022-08-07T17:54:46;29.40;35.80
56729;DHT22;42612;52.232;7.560;2022-08-07T17:57:45;29.30;35.80
56729;DHT22;42612;52.232;7.560;2022-08-07T18:00:35;29.20;35.80
56729;DHT22;42612;52.232;7.560;2022-08-07T18:03:25;29.20;35.80
56729;DHT22;42612;52.232;7.560;2022-08-07T18:06:13;29.10;35.80
56729;DHT22;42612;52.232;7.560;2022-08-07T18:09:00;29.00;35.70
56729;DHT22;42612;52.232;7.560;2022-08-07T18:11:57;28.90;35.70
56729;DHT22;42612;52.232;7.560;2022-08-07T18:14:53;28.80;35.80
56729;DHT22;42612;52.232;7.560;2022-08-07T18:17:53;28.70;35.80
56729;DHT22;42612;52.232;7.560;2022-08-07T18:21:07;28.60;35.90
56729;DHT22;42612;52.232;7.560;2022-08-07T18:30:10;28.40;36.10
56729;DHT22;42612;52.232;7.560;2022-08-07T18:49:12;27.80;36.10
56729;DHT22;42612;52.232;7.560;2022-08-07T18:55:32;27.60;36.20
56729;DHT22;42612;52.232;7.560;2022-08-07T19:01:29;27.50;36.30
56729;DHT22;42612;52.232;7.560;2022-08-07T19:10:45;27.30;36.40
56729;DHT22;42612;52.232;7.560;2022-08-07T19:16:30;27.20;36.80
56729;DHT22;42612;52.232;7.560;2022-08-07T19:22:11;27.10;37.00
56729;DHT22;42612;52.232;7.560;2022-08-07T19:25:12;27.00;37.10
56729;DHT22;42612;52.232;7.560;2022-08-07T19:27:58;26.90;37.10
56729;DHT22;42612;52.232;7.560;2022-08-07T19:30:54;26.90;37.20
56729;DHT22;42612;52.232;7.560;2022-08-07T19:33:44;26.80;37.30
56729;DHT22;42612;52.232;7.560;2022-08-07T19:36:33;26.80;37.40
56729;DHT22;42612;52.232;7.560;2022-08-07T19:39:25;26.70;37.40
56729;DHT22;42612;52.232;7.560;2022-08-07T19:42:14;26.60;37.50
56729;DHT22;42612;52.232;7.560;2022-08-07T19:45:02;26.60;37.70
56729;DHT22;42612;52.232;7.560;2022-08-07T19:47:51;26.50;37.70
56729;DHT22;42612;52.232;7.560;2022-08-07T19:50:37;26.40;37.60
56729;DHT22;42612;52.232;7.560;2022-08-07T19:53:24;26.30;37.60
56729;DHT22;42612;52.232;7.560;2022-08-07T19:56:12;26.30;37.70
56729;DHT22;42612;52.232;7.560;2022-08-07T19:58:58;26.10;37.90
56729;DHT22;42612;52.232;7.560;2022-08-07T20:01:49;26.10;38.00
56729;DHT22;42612;52.232;7.560;2022-08-07T20:04:37;26.00;37.90
56729;DHT22;42612;52.232;7.560;2022-08-07T20:07:25;25.90;37.90
56729;DHT22;42612;52.232;7.560;2022-08-07T20:10:13;25.80;37.80
56729;DHT22;42612;52.232;7.560;2022-08-07T20:13:02;25.80;37.90
56729;DHT22;42612;52.232;7.560;2022-08-07T20:15:49;25.70;38.00
56729;DHT22;42612;52.232;7.560;2022-08-07T20:18:38;25.60;38.10
56729;DHT22;42612;52.232;7.560;2022-08-07T20:21:25;25.40;38.10
56729;DHT22;42612;52.232;7.560;2022-08-07T20:24:12;25.40;38.20
56729;DHT22;42612;52.232;7.560;2022-08-07T20:27:00;25.30;38.30
56729;DHT22;42612;52.232;7.560;2022-08-07T20:29:48;25.20;38.40
56729;DHT22;42612;52.232;7.560;2022-08-07T20:32:38;25.10;38.40
56729;DHT22;42612;52.232;7.560;2022-08-07T20:35:30;25.10;38.40
56729;DHT22;42612;52.232;7.560;2022-08-07T20:38:20;25.10;38.30
56729;DHT22;42612;52.232;7.560;2022-08-07T20:41:06;25.00;38.20
56729;DHT22;42612;52.232;7.560;2022-08-07T20:43:53;24.90;38.20
56729;DHT22;42612;52.232;7.560;2022-08-07T20:46:39;24.70;38.80
56729;DHT22;42612;52.232;7.560;2022-08-07T20:49:25;24.70;38.20
56729;DHT22;42612;52.232;7.560;2022-08-07T20:52:15;24.60;38.30
56729;DHT22;42612;52.232;7.560;2022-08-07T20:55:02;24.50;38.30
56729;DHT22;42612;52.232;7.560;2022-08-07T20:57:59;24.40;38.40
56729;DHT22;42612;52.232;7.560;2022-08-07T21:00:51;24.40;38.40
56729;DHT22;42612;52.232;7.560;2022-08-07T21:03:49;24.30;38.50
56729;DHT22;42612;52.232;7.560;2022-08-07T21:06:37;24.20;38.60
56729;DHT22;42612;52.232;7.560;2022-08-07T21:09:30;24.10;38.60
56729;DHT22;42612;52.232;7.560;2022-08-07T21:12:17;24.00;38.70
56729;DHT22;42612;52.232;7.560;2022-08-07T21:15:06;24.00;38.80
56729;DHT22;42612;52.232;7.560;2022-08-07T21:17:53;23.90;38.90
56729;DHT22;42612;52.232;7.560;2022-08-07T21:20:39;23.80;38.90
56729;DHT22;42612;52.232;7.560;2022-08-07T21:29:48;23.70;39.20
56729;DHT22;42612;52.232;7.560;2022-08-07T21:32:38;23.60;39.20